Time;durP1;ratioP1;P1;durP2;ratioP2;P2;SDS_P1;SDS_P2;PMS_P1;PMS_P2;Temp;Humidity;BMP_temperature;BMP_pressure;BME280_temperature;BME280_humidity;BME280_pressure;Samples;Min_cycle;Max_cycle;Signal;HPM_P1;HPM_P2
2024/01/22 00:01:29;;;;;;;9.55;5.70;;;;;;;;;;5027648;28;20036;-59
2024/01/22 00:03:55;;;;;;;9.43;5.80;;;;;;;;;;5010487;28;20033;-61
2024/01/22 00:06:21;;;;;;;8.77;5.22;;;;;;;;;;5028425;28;20029;-61
2024/01/22 00:08:47;;;;;;;9.50;5.50;;;;;;;;;;5028597;28;20036;-60
2024/01/22 00:11:12;;;;;;;9.57;5.63;;;;;;;;;;5009949;28;20116;-60
2024/01/22 00:13:39;;;;;;;11.20;6.63;;;;;;;;;;5028434;28;20025;-60
2024/01/22 00:16:05;;;;;;;10.90;6.10;;;;;;;;;;5028166;28;20163;-59
2024/01/22 00:18:31;;;;;;;8.93;5.28;;;;;;;;;;5028300;28;20171;-59
2024/01/22 00:20:57;;;;;;;10.40;5.57;;;;;;;;;;5027996;28;20144;-60
2024/01/22 00:23:24;;;;;;;9.10;5.40;;;;;;;;;;5027657;28;20029;-59
2024/01/22 00:25:50;;;;;;;18.00;5.70;;;;;;;;;;5028124;28;20091;-59
2024/01/22 00:28:15;;;;;;;10.18;5.70;;;;;;;;;;5027805;28;20033;-60
2024/01/22 00:30:41;;;;;;;10.70;5.88;;;;;;;;;;5027592;28;20068;-59
2024/01/22 00:33:07;;;;;;;11.10;7.10;;;;;;;;;;5026222;28;20146;-59
2024/01/22 00:35:34;;;;;;;12.80;5.78;;;;;;;;;;5008339;28;20021;-58
2024/01/22 00:38:00;;;;;;;9.82;5.70;;;;;;;;;;5008156;28;20044;-57
2024/01/22 00:40:26;;;;;;;9.68;5.43;;;;;;;;;;5008263;28;20109;-59
2024/01/22 00:42:52;;;;;;;10.77;6.22;;;;;;;;;;5007379;28;20117;-61
2024/01/22 00:45:18;;;;;;;11.15;6.53;;;;;;;;;;5012559;28;20045;-61
2024/01/22 00:47:44;;;;;;;8.93;5.30;;;;;;;;;;5033064;28;20025;-61
2024/01/22 00:50:10;;;;;;;11.20;6.60;;;;;;;;;;5031823;28;20372;-60
2024/01/22 00:52:36;;;;;;;10.30;6.10;;;;;;;;;;5030166;28;20563;-60
2024/01/22 00:55:02;;;;;;;10.20;6.10;;;;;;;;;;5030821;28;20044;-59
2024/01/22 00:57:28;;;;;;;10.52;6.20;;;;;;;;;;5031072;28;20032;-62
2024/01/22 00:59:54;;;;;;;10.18;5.97;;;;;;;;;;5030647;28;20033;-61
2024/01/22 01:02:20;;;;;;;10.35;6.00;;;;;;;;;;5030128;28;20104;-61
2024/01/22 01:04:46;;;;;;;10.60;6.30;;;;;;;;;;5030981;28;20421;-62
2024/01/22 01:07:12;;;;;;;11.15;6.72;;;;;;;;;;5014556;28;20027;-60
2024/01/22 01:09:38;;;;;;;10.40;6.20;;;;;;;;;;5014497;28;20116;-60
2024/01/22 01:12:05;;;;;;;11.15;6.30;;;;;;;;;;5031454;28;20029;-60
2024/01/22 01:14:31;;;;;;;10.65;6.45;;;;;;;;;;5032078;28;20039;-63
2024/01/22 01:16:57;;;;;;;9.88;5.80;;;;;;;;;;5032427;28;20025;-61
2024/01/22 01:19:23;;;;;;;11.27;6.32;;;;;;;;;;5032197;28;20513;-61
2024/01/22 01:21:49;;;;;;;9.82;5.78;;;;;;;;;;5031281;28;20064;-61
2024/01/22 01:24:15;;;;;;;11.93;6.47;;;;;;;;;;5031598;28;20025;-61
2024/01/22 01:26:41;;;;;;;10.13;5.97;;;;;;;;;;5031778;28;20029;-61
2024/01/22 01:29:08;;;;;;;10.20;6.10;;;;;;;;;;5031690;28;20025;-63
2024/01/22 01:31:34;;;;;;;10.45;6.10;;;;;;;;;;5030109;28;20017;-61
2024/01/22 01:34:00;;;;;;;10.20;6.00;;;;;;;;;;5013617;28;20026;-61
2024/01/22 01:36:26;;;;;;;9.85;5.70;;;;;;;;;;5031508;28;20018;-62
2024/01/22 01:38:52;;;;;;;10.48;5.93;;;;;;;;;;5031424;28;20067;-62
2024/01/22 01:41:18;;;;;;;11.48;6.82;;;;;;;;;;5013261;28;20022;-59
2024/01/22 01:43:44;;;;;;;10.60;6.38;;;;;;;;;;5031050;28;20033;-61
2024/01/22 01:46:10;;;;;;;11.52;6.50;;;;;;;;;;5031645;28;20139;-61
2024/01/22 01:48:36;;;;;;;10.25;6.00;;;;;;;;;;5013823;28;20032;-60
2024/01/22 01:51:02;;;;;;;10.43;6.05;;;;;;;;;;5031173;28;20025;-60
2024/01/22 01:53:29;;;;;;;10.20;6.00;;;;;;;;;;5030883;28;20140;-62
2024/01/22 01:55:55;;;;;;;10.10;6.10;;;;;;;;;;5030953;28;20028;-63
2024/01/22 01:58:22;;;;;;;11.07;6.57;;;;;;;;;;5031256;28;20071;-63
2024/01/22 02:00:49;;;;;;;10.88;6.20;;;;;;;;;;5031308;28;20038;-62
2024/01/22 02:03:15;;;;;;;12.10;7.28;;;;;;;;;;5012913;28;20033;-62
2024/01/22 02:05:41;;;;;;;10.90;6.30;;;;;;;;;;5031128;28;20399;-63
2024/01/22 02:08:08;;;;;;;10.40;6.30;;;;;;;;;;5030955;28;20025;-61
2024/01/22 02:10:34;;;;;;;10.20;6.00;;;;;;;;;;5031148;28;20100;-62
2024/01/22 02:13:03;;;;;;;10.25;6.03;;;;;;;;;;5030352;28;20128;-63
2024/01/22 02:15:29;;;;;;;11.30;6.75;;;;;;;;;;5031296;28;20069;-61
2024/01/22 02:17:59;;;;;;;10.90;6.30;;;;;;;;;;5031206;28;20053;-61
2024/01/22 02:20:25;;;;;;;10.30;6.07;;;;;;;;;;5031149;28;20462;-59
2024/01/22 02:22:51;;;;;;;10.30;6.05;;;;;;;;;;5030363;28;20036;-59
2024/01/22 02:25:17;;;;;;;11.50;6.57;;;;;;;;;;5030875;28;20416;-64
2024/01/22 02:27:43;;;;;;;10.73;6.30;;;;;;;;;;5013054;28;20026;-61
2024/01/22 02:30:09;;;;;;;11.38;6.20;;;;;;;;;;5030731;28;20018;-61
2024/01/22 02:32:35;;;;;;;10.55;6.00;;;;;;;;;;5012090;28;20032;-61
2024/01/22 02:35:01;;;;;;;10.50;6.30;;;;;;;;;;5030657;28;20025;-61
2024/01/22 02:37:27;;;;;;;10.05;5.95;;;;;;;;;;5012892;28;20082;-61
2024/01/22 02:39:53;;;;;;;10.60;6.30;;;;;;;;;;5030569;28;20028;-60
2024/01/22 02:42:19;;;;;;;10.05;5.93;;;;;;;;;;5029385;28;20108;-59
2024/01/22 02:44:45;;;;;;;10.55;6.07;;;;;;;;;;5029894;28;20088;-61
2024/01/22 02:47:11;;;;;;;11.40;6.60;;;;;;;;;;5030484;28;20120;-60
2024/01/22 02:49:37;;;;;;;10.43;6.13;;;;;;;;;;5030316;28;20032;-61
2024/01/22 02:52:04;;;;;;;11.77;6.60;;;;;;;;;;5029379;28;20117;-61
2024/01/22 02:54:31;;;;;;;10.10;5.97;;;;;;;;;;5030027;28;20049;-60
2024/01/22 02:56:57;;;;;;;11.02;6.50;;;;;;;;;;5030061;28;20377;-61
2024/01/22 02:59:23;;;;;;;11.02;6.38;;;;;;;;;;5029993;28;20052;-61
2024/01/22 03:01:49;;;;;;;11.35;6.63;;;;;;;;;;5029229;28;20033;-61
2024/01/22 03:04:15;;;;;;;11.20;6.68;;;;;;;;;;5011793;28;20116;-62
2024/01/22 03:06:41;;;;;;;11.35;6.50;;;;;;;;;;5012075;28;20022;-62
2024/01/22 03:09:07;;;;;;;11.00;6.40;;;;;;;;;;5028984;28;20026;-61
2024/01/22 03:11:33;;;;;;;11.20;6.50;;;;;;;;;;5029032;28;20025;-61
2024/01/22 03:13:59;;;;;;;10.75;6.30;;;;;;;;;;5029705;28;20507;-61
2024/01/22 03:16:25;;;;;;;15.25;6.82;;;;;;;;;;5012041;28;20132;-61
2024/01/22 03:18:52;;;;;;;11.20;6.68;;;;;;;;;;5029830;28;20021;-61
2024/01/22 03:21:18;;;;;;;10.13;5.97;;;;;;;;;;5029318;28;20029;-60
2024/01/22 03:23:44;;;;;;;10.90;6.40;;;;;;;;;;5011909;28;20024;-60
2024/01/22 03:26:20;;;;;;;10.00;5.85;;;;;;;;;;5029631;28;20026;-61
2024/01/22 03:28:46;;;;;;;10.60;6.10;;;;;;;;;;5029946;28;20067;-61
2024/01/22 03:31:26;;;;;;;11.05;6.40;;;;;;;;;;5011562;28;20161;-60
2024/01/22 03:33:55;;;;;;;16.38;6.50;;;;;;;;;;5029802;28;20025;-59
2024/01/22 03:36:21;;;;;;;10.20;6.30;;;;;;;;;;5029974;28;20103;-61
2024/01/22 03:38:47;;;;;;;9.43;5.57;;;;;;;;;;5029725;28;20026;-60
2024/01/22 03:41:13;;;;;;;9.50;5.60;;;;;;;;;;5010734;28;20032;-62
2024/01/22 03:43:41;;;;;;;9.93;5.93;;;;;;;;;;5029600;28;20079;-61
2024/01/22 03:46:07;;;;;;;10.70;6.20;;;;;;;;;;5029250;28;20033;-60
2024/01/22 03:48:33;;;;;;;10.10;5.90;;;;;;;;;;5029027;28;20104;-61
2024/01/22 03:50:59;;;;;;;9.82;5.82;;;;;;;;;;5029229;28;20065;-60
2024/01/22 03:53:25;;;;;;;11.98;6.90;;;;;;;;;;5028541;28;20053;-60
2024/01/22 03:55:51;;;;;;;15.10;12.60;;;;;;;;;;5028971;28;20037;-58
2024/01/22 03:58:17;;;;;;;26.33;24.02;;;;;;;;;;5028931;28;20436;-58
2024/01/22 04:00:43;;;;;;;37.17;33.97;;;;;;;;;;5028715;28;20065;-60
2024/01/22 04:03:09;;;;;;;38.55;35.35;;;;;;;;;;5028441;28;20037;-56
2024/01/22 04:05:35;;;;;;;42.95;39.45;;;;;;;;;;5029627;28;20022;-62
2024/01/22 04:08:01;;;;;;;52.85;48.75;;;;;;;;;;5029550;28;20387;-67
2024/01/22 04:10:27;;;;;;;54.22;50.03;;;;;;;;;;5029020;28;20075;-61
2024/01/22 04:12:55;;;;;;;52.33;48.33;;;;;;;;;;5028166;28;20100;-63
2024/01/22 04:15:21;;;;;;;52.92;49.03;;;;;;;;;;5029113;28;20052;-61
2024/01/22 04:17:47;;;;;;;53.80;49.90;;;;;;;;;;5028727;28;20096;-61
2024/01/22 04:20:13;;;;;;;56.75;51.92;;;;;;;;;;5031828;28;20760;-60
2024/01/22 04:22:39;;;;;;;56.15;52.25;;;;;;;;;;5032367;28;20106;-62
2024/01/22 04:25:05;;;;;;;56.03;52.17;;;;;;;;;;5033190;28;20109;-60
2024/01/22 04:27:31;;;;;;;56.05;52.15;;;;;;;;;;5033287;28;20435;-60
2024/01/22 04:29:57;;;;;;;57.88;53.97;;;;;;;;;;5033080;28;20159;-61
2024/01/22 04:32:23;;;;;;;57.90;54.00;;;;;;;;;;5014835;28;20103;-60
2024/01/22 04:34:50;;;;;;;57.67;53.88;;;;;;;;;;5033043;28;20038;-61
2024/01/22 04:37:16;;;;;;;58.25;54.35;;;;;;;;;;5033186;28;20112;-61
2024/01/22 04:39:42;;;;;;;58.60;54.83;;;;;;;;;;5032692;28;20076;-61
2024/01/22 04:42:09;;;;;;;59.65;55.75;;;;;;;;;;5032191;28;20061;-59
2024/01/22 04:44:35;;;;;;;61.15;57.15;;;;;;;;;;5033309;28;20438;-60
2024/01/22 04:47:01;;;;;;;59.90;55.95;;;;;;;;;;5033140;28;20021;-60
2024/01/22 04:49:27;;;;;;;60.65;56.75;;;;;;;;;;5032709;28;20028;-60
2024/01/22 04:51:55;;;;;;;59.55;55.75;;;;;;;;;;5032174;28;20056;-60
2024/01/22 04:54:21;;;;;;;58.63;54.83;;;;;;;;;;5032629;28;20053;-61
2024/01/22 04:56:48;;;;;;;57.58;53.88;;;;;;;;;;5032558;28;20502;-60
2024/01/22 04:59:14;;;;;;;57.17;53.47;;;;;;;;;;5032481;28;20087;-60
2024/01/22 05:01:40;;;;;;;58.15;54.35;;;;;;;;;;5031749;28;20438;-57
2024/01/22 05:04:06;;;;;;;56.53;52.72;;;;;;;;;;5032220;28;20076;-59
2024/01/22 05:06:32;;;;;;;54.22;50.63;;;;;;;;;;5032352;28;20029;-58
2024/01/22 05:08:58;;;;;;;56.35;52.55;;;;;;;;;;5032396;28;20087;-57
2024/01/22 05:11:24;;;;;;;55.55;51.75;;;;;;;;;;5014063;28;20097;-60
2024/01/22 05:13:51;;;;;;;53.85;50.15;;;;;;;;;;5032382;28;20037;-60
2024/01/22 05:16:17;;;;;;;53.60;50.00;;;;;;;;;;5032314;28;20439;-58
2024/01/22 05:18:44;;;;;;;54.92;51.33;;;;;;;;;;5032003;28;20049;-60
2024/01/22 05:21:10;;;;;;;54.65;51.05;;;;;;;;;;5031248;28;20029;-54
2024/01/22 05:23:37;;;;;;;52.38;48.78;;;;;;;;;;5031965;28;20029;-60
2024/01/22 05:26:03;;;;;;;52.15;48.75;;;;;;;;;;5014119;28;20407;-62
2024/01/22 05:28:29;;;;;;;52.83;49.33;;;;;;;;;;5032075;28;20021;-62
2024/01/22 05:30:55;;;;;;;54.08;50.50;;;;;;;;;;5030900;28;20022;-60
2024/01/22 05:33:21;;;;;;;51.63;48.22;;;;;;;;;;5031213;28;20033;-58
2024/01/22 05:35:48;;;;;;;51.80;48.40;;;;;;;;;;5031861;28;20091;-60
2024/01/22 05:38:14;;;;;;;51.15;47.75;;;;;;;;;;5014079;28;20498;-62
2024/01/22 05:40:40;;;;;;;51.97;48.58;;;;;;;;;;5031646;28;20041;-60
2024/01/22 05:43:06;;;;;;;51.05;47.65;;;;;;;;;;5013428;28;20561;-57
2024/01/22 05:45:32;;;;;;;50.67;47.28;;;;;;;;;;5031314;28;20491;-61
2024/01/22 05:47:58;;;;;;;50.28;46.88;;;;;;;;;;5013964;28;20083;-62
2024/01/22 05:50:24;;;;;;;49.65;46.25;;;;;;;;;;5032283;28;20030;-61
2024/01/22 05:52:50;;;;;;;49.28;45.97;;;;;;;;;;5031256;28;20053;-63
2024/01/22 05:55:16;;;;;;;49.58;46.25;;;;;;;;;;5031857;28;20457;-62
2024/01/22 05:57:42;;;;;;;48.83;45.63;;;;;;;;;;5031967;28;20070;-58
2024/01/22 06:00:13;;;;;;;48.88;45.58;;;;;;;;;;5032032;28;20104;-60
2024/01/22 06:02:42;;;;;;;47.40;44.10;;;;;;;;;;5031001;28;20486;-60
2024/01/22 06:05:09;;;;;;;46.88;43.63;;;;;;;;;;5031897;28;20033;-59
2024/01/22 06:07:36;;;;;;;47.03;43.83;;;;;;;;;;5031523;28;20510;-60
2024/01/22 06:10:02;;;;;;;46.45;43.25;;;;;;;;;;5031363;28;20060;-61
2024/01/22 06:12:28;;;;;;;46.08;42.88;;;;;;;;;;5030574;28;20018;-59
2024/01/22 06:14:54;;;;;;;45.55;42.35;;;;;;;;;;5031271;28;20037;-58
2024/01/22 06:17:20;;;;;;;43.47;40.47;;;;;;;;;;5031060;28;20126;-57
2024/01/22 06:19:46;;;;;;;39.38;36.67;;;;;;;;;;5013237;28;20039;-60
2024/01/22 06:22:12;;;;;;;38.25;35.65;;;;;;;;;;5030055;28;20025;-58
2024/01/22 06:24:39;;;;;;;34.42;32.03;;;;;;;;;;5030432;28;20026;-60
2024/01/22 06:27:05;;;;;;;33.25;30.85;;;;;;;;;;5012603;28;20087;-54
2024/01/22 06:29:32;;;;;;;31.30;29.00;;;;;;;;;;5030448;28;20028;-60
2024/01/22 06:31:58;;;;;;;30.25;28.00;;;;;;;;;;5029189;28;20013;-56
2024/01/22 06:34:24;;;;;;;30.50;28.20;;;;;;;;;;5030559;28;20032;-60
2024/01/22 06:36:50;;;;;;;28.50;26.30;;;;;;;;;;5030545;28;20033;-58
2024/01/22 06:39:16;;;;;;;27.63;25.52;;;;;;;;;;5030433;28;20029;-58
2024/01/22 06:41:42;;;;;;;26.75;24.65;;;;;;;;;;5029881;28;20071;-59
2024/01/22 06:44:08;;;;;;;26.95;24.85;;;;;;;;;;5029773;28;20033;-60
2024/01/22 06:46:34;;;;;;;27.60;25.30;;;;;;;;;;5030136;28;20469;-62
2024/01/22 06:49:00;;;;;;;25.67;23.58;;;;;;;;;;5030921;28;20025;-60
2024/01/22 06:51:28;;;;;;;25.45;23.45;;;;;;;;;;5029439;28;20117;-59
2024/01/22 06:53:54;;;;;;;24.50;22.50;;;;;;;;;;5029873;28;20034;-58
2024/01/22 06:56:20;;;;;;;24.38;22.38;;;;;;;;;;5026979;28;20041;-57
2024/01/22 06:58:46;;;;;;;24.23;22.23;;;;;;;;;;5000203;28;20112;-62
2024/01/22 07:01:14;;;;;;;20.80;19.00;;;;;;;;;;5017331;28;20033;-60
2024/01/22 07:03:39;;;;;;;19.60;17.80;;;;;;;;;;5010284;28;20037;-62
2024/01/22 07:06:05;;;;;;;20.20;18.30;;;;;;;;;;5026715;28;20025;-61
2024/01/22 07:08:31;;;;;;;16.65;14.95;;;;;;;;;;5030216;28;20024;-60
2024/01/22 07:10:58;;;;;;;14.85;12.70;;;;;;;;;;5029827;28;20121;-60
2024/01/22 07:13:24;;;;;;;15.90;12.60;;;;;;;;;;5022330;28;20049;-60
2024/01/22 07:15:50;;;;;;;15.90;12.73;;;;;;;;;;5009955;28;20034;-60
2024/01/22 07:18:16;;;;;;;14.65;11.75;;;;;;;;;;5010045;28;20021;-60
2024/01/22 07:20:42;;;;;;;14.60;11.35;;;;;;;;;;5009751;28;20030;-60
2024/01/22 07:23:08;;;;;;;14.68;11.45;;;;;;;;;;5009179;28;20109;-61
2024/01/22 07:25:36;;;;;;;14.60;11.40;;;;;;;;;;5009579;28;20410;-61
2024/01/22 07:28:03;;;;;;;14.90;12.25;;;;;;;;;;5009689;28;20022;-60
2024/01/22 07:30:29;;;;;;;15.13;13.00;;;;;;;;;;5016157;28;20410;-61
2024/01/22 07:32:56;;;;;;;18.48;16.67;;;;;;;;;;5009724;28;20056;-60
2024/01/22 07:35:24;;;;;;;31.88;29.58;;;;;;;;;;5029085;28;20026;-57
2024/01/22 07:37:50;;;;;;;32.00;29.60;;;;;;;;;;5029065;28;20037;-62
2024/01/22 07:40:18;;;;;;;39.05;36.35;;;;;;;;;;5029061;28;20030;-59
2024/01/22 07:42:44;;;;;;;42.63;39.70;;;;;;;;;;5027730;28;20056;-59
2024/01/22 07:45:11;;;;;;;45.05;41.85;;;;;;;;;;5028498;28;20052;-58
2024/01/22 07:47:38;;;;;;;46.33;43.13;;;;;;;;;;5011326;28;20405;-60
2024/01/22 07:50:10;;;;;;;45.67;42.53;;;;;;;;;;5028996;28;20422;-62
2024/01/22 07:52:36;;;;;;;48.08;44.67;;;;;;;;;;5028206;28;20097;-57
2024/01/22 07:55:03;;;;;;;45.65;42.45;;;;;;;;;;5028823;28;20034;-58
2024/01/22 07:57:29;;;;;;;45.95;42.75;;;;;;;;;;5029374;28;20405;-58
2024/01/22 07:59:55;;;;;;;44.53;41.42;;;;;;;;;;5029330;28;20104;-59
2024/01/22 08:02:21;;;;;;;43.20;40.20;;;;;;;;;;5028470;28;20030;-57
2024/01/22 08:04:47;;;;;;;49.70;46.00;;;;;;;;;;5027342;28;20030;-57
2024/01/22 08:07:13;;;;;;;48.72;45.22;;;;;;;;;;5009657;28;20026;-57
2024/01/22 08:09:40;;;;;;;46.72;43.33;;;;;;;;;;5009780;28;20110;-59
2024/01/22 08:12:06;;;;;;;43.85;40.63;;;;;;;;;;5009268;28;20220;-59
2024/01/22 08:14:35;;;;;;;41.92;38.83;;;;;;;;;;4992159;28;20077;-59
2024/01/22 08:17:01;;;;;;;40.22;37.22;;;;;;;;;;5010337;28;20048;-59
2024/01/22 08:19:28;;;;;;;38.53;35.72;;;;;;;;;;5010145;28;20043;-59
2024/01/22 08:21:54;;;;;;;37.58;34.78;;;;;;;;;;5010162;28;20026;-54
2024/01/22 08:24:21;;;;;;;37.10;34.35;;;;;;;;;;5010751;28;20048;-61
2024/01/22 08:26:48;;;;;;;37.28;34.58;;;;;;;;;;5011107;28;20018;-61
2024/01/22 08:29:14;;;;;;;37.42;34.72;;;;;;;;;;5010794;28;20026;-59
2024/01/22 08:31:40;;;;;;;35.15;32.55;;;;;;;;;;5021064;28;20119;-59
2024/01/22 08:34:06;;;;;;;35.28;32.58;;;;;;;;;;5030628;28;20017;-58
2024/01/22 08:36:32;;;;;;;30.70;28.33;;;;;;;;;;5031187;28;20080;-61
2024/01/22 08:38:58;;;;;;;31.70;29.30;;;;;;;;;;5013263;28;20064;-61
2024/01/22 08:41:27;;;;;;;28.55;26.35;;;;;;;;;;5030580;28;20025;-60
2024/01/22 08:43:53;;;;;;;31.15;28.85;;;;;;;;;;5031908;28;20034;-61
2024/01/22 08:46:20;;;;;;;33.80;31.40;;;;;;;;;;5030545;28;20048;-60
2024/01/22 08:48:46;;;;;;;32.75;30.45;;;;;;;;;;5029164;28;20045;-59
2024/01/22 08:51:12;;;;;;;32.95;30.65;;;;;;;;;;5027850;28;20116;-57
2024/01/22 08:53:38;;;;;;;33.53;31.13;;;;;;;;;;5010678;28;20108;-61
2024/01/22 08:56:05;;;;;;;33.22;30.65;;;;;;;;;;5028497;28;20025;-56
2024/01/22 08:58:31;;;;;;;30.40;28.10;;;;;;;;;;5009562;28;20113;-58
2024/01/22 09:00:58;;;;;;;26.00;24.00;;;;;;;;;;5008770;28;20109;-56
2024/01/22 09:03:25;;;;;;;25.70;23.60;;;;;;;;;;5008211;28;20025;-50
2024/01/22 09:05:51;;;;;;;23.40;21.50;;;;;;;;;;5009108;28;20032;-54
2024/01/22 09:08:17;;;;;;;22.80;20.90;;;;;;;;;;5012431;28;20014;-53
2024/01/22 09:10:43;;;;;;;26.35;24.15;;;;;;;;;;5012070;28;20088;-52
2024/01/22 09:13:09;;;;;;;32.28;29.88;;;;;;;;;;5011898;28;20026;-52
2024/01/22 09:15:35;;;;;;;34.72;32.22;;;;;;;;;;5012426;28;20029;-52
2024/01/22 09:18:01;;;;;;;41.65;38.75;;;;;;;;;;5012369;28;20129;-53
2024/01/22 09:20:27;;;;;;;39.35;36.65;;;;;;;;;;5012263;28;20108;-53
2024/01/22 09:22:53;;;;;;;41.58;38.80;;;;;;;;;;5011799;28;20026;-55
2024/01/22 09:25:20;;;;;;;39.85;37.10;;;;;;;;;;5012102;28;20100;-53
2024/01/22 09:27:49;;;;;;;37.60;35.00;;;;;;;;;;5011083;28;20057;-52
2024/01/22 09:30:15;;;;;;;36.50;34.00;;;;;;;;;;5012500;28;20025;-56
2024/01/22 09:32:41;;;;;;;35.05;32.65;;;;;;;;;;5010210;28;20026;-52
2024/01/22 09:35:07;;;;;;;34.90;32.50;;;;;;;;;;5011741;28;20062;-51
2024/01/22 09:37:34;;;;;;;33.17;30.88;;;;;;;;;;5011887;28;20084;-54
2024/01/22 09:40:00;;;;;;;32.25;29.95;;;;;;;;;;5012100;28;20021;-56
2024/01/22 09:42:27;;;;;;;33.15;30.85;;;;;;;;;;5010578;28;20053;-54
2024/01/22 09:44:53;;;;;;;31.45;29.15;;;;;;;;;;5010144;28;20034;-52
2024/01/22 09:47:20;;;;;;;37.35;34.85;;;;;;;;;;5011385;28;20472;-55
2024/01/22 09:49:47;;;;;;;37.83;35.33;;;;;;;;;;5014477;28;20057;-56
2024/01/22 09:52:18;;;;;;;37.08;34.58;;;;;;;;;;5027725;28;20017;-56
2024/01/22 09:54:44;;;;;;;36.88;34.38;;;;;;;;;;5031275;28;20018;-57
2024/01/22 09:57:18;;;;;;;36.72;34.22;;;;;;;;;;5013528;28;20029;-56
2024/01/22 09:59:44;;;;;;;36.10;33.63;;;;;;;;;;5031089;28;20104;-58
2024/01/22 10:02:18;;;;;;;37.28;34.40;;;;;;;;;;5012570;28;20069;-55
2024/01/22 10:04:44;;;;;;;36.65;34.10;;;;;;;;;;5030989;28;20018;-58
2024/01/22 10:07:14;;;;;;;35.03;32.63;;;;;;;;;;5031056;28;20032;-58
2024/01/22 10:09:40;;;;;;;33.28;30.88;;;;;;;;;;5030977;28;20028;-57
2024/01/22 10:12:06;;;;;;;29.33;27.13;;;;;;;;;;5030507;28;20456;-56
2024/01/22 10:14:42;;;;;;;42.70;27.80;;;;;;;;;;5031405;28;20025;-56
2024/01/22 10:17:17;;;;;;;30.50;28.10;;;;;;;;;;5013055;28;20039;-55
2024/01/22 10:19:45;;;;;;;27.10;24.90;;;;;;;;;;5031104;28;20488;-53
2024/01/22 10:22:11;;;;;;;27.40;24.98;;;;;;;;;;5030143;28;20041;-57
2024/01/22 10:24:39;;;;;;;26.83;24.73;;;;;;;;;;5012863;28;20026;-54
2024/01/22 10:27:17;;;;;;;27.65;25.45;;;;;;;;;;5030812;28;20494;-56
2024/01/22 10:29:43;;;;;;;;;;;;;;;;;;5031186;28;20498;-54
2024/01/22 10:32:09;;;;;;;26.40;24.30;;;;;;;;;;5030028;28;19905;-54
2024/01/22 10:34:53;;;;;;;26.63;23.88;;;;;;;;;;5030564;28;20040;-53
2024/01/22 10:37:19;;;;;;;24.00;22.00;;;;;;;;;;5030603;28;20491;-55
2024/01/22 10:39:46;;;;;;;16.45;14.75;;;;;;;;;;5021652;28;20349;-58
2024/01/22 10:42:14;;;;;;;14.60;10.60;;;;;;;;;;5012089;28;20045;-56
2024/01/22 10:44:41;;;;;;;14.23;10.25;;;;;;;;;;5030336;28;20025;-54
2024/01/22 10:47:09;;;;;;;14.65;9.93;;;;;;;;;;5030366;28;20044;-60
2024/01/22 10:49:35;;;;;;;14.10;9.70;;;;;;;;;;5030339;28;20021;-54
2024/01/22 10:52:05;;;;;;;14.63;10.43;;;;;;;;;;5029031;28;20044;-57
2024/01/22 10:54:32;;;;;;;16.38;10.18;;;;;;;;;;5012204;28;20118;-55
2024/01/22 10:57:24;;;;;;;14.30;9.70;;;;;;;;;;5030187;28;20037;-57
2024/01/22 10:59:52;;;;;;;13.75;9.15;;;;;;;;;;5006846;28;20045;-55
2024/01/22 11:02:22;;;;;;;14.00;9.53;;;;;;;;;;5011720;28;20058;-56
2024/01/22 11:04:50;;;;;;;14.50;9.52;;;;;;;;;;5030089;28;20287;-55
2024/01/22 11:07:17;;;;;;;14.00;9.50;;;;;;;;;;5030147;28;20023;-56
2024/01/22 11:09:45;;;;;;;13.70;8.77;;;;;;;;;;5030154;28;20024;-58
2024/01/22 11:12:17;;;;;;;13.48;8.27;;;;;;;;;;5029369;28;20087;-54
2024/01/22 11:14:44;;;;;;;13.57;8.60;;;;;;;;;;5030059;28;20037;-54
2024/01/22 11:17:10;;;;;;;16.85;15.05;;;;;;;;;;5030151;28;20097;-56
2024/01/22 11:19:37;;;;;;;16.55;14.85;;;;;;;;;;5029962;28;20030;-56
2024/01/22 11:22:08;;;;;;;19.17;17.38;;;;;;;;;;5029149;28;20040;-58
2024/01/22 11:24:36;;;;;;;32.55;30.15;;;;;;;;;;5029716;28;20394;-66
2024/01/22 11:27:06;;;;;;;35.57;32.97;;;;;;;;;;5029706;28;20025;-56
2024/01/22 11:29:32;;;;;;;40.15;36.70;;;;;;;;;;5029405;28;20034;-55
2024/01/22 11:32:18;;;;;;;41.47;38.47;;;;;;;;;;5027933;28;20083;-54
2024/01/22 11:34:45;;;;;;;43.55;40.45;;;;;;;;;;5029631;28;20081;-56
2024/01/22 11:37:11;;;;;;;38.63;35.83;;;;;;;;;;5011768;28;20057;-58
2024/01/22 11:39:43;;;;;;;39.63;36.83;;;;;;;;;;5029654;28;20044;-57
2024/01/22 11:42:12;;;;;;;44.55;41.45;;;;;;;;;;5028467;28;20104;-57
2024/01/22 11:44:41;;;;;;;37.67;34.97;;;;;;;;;;5029274;28;20392;-58
2024/01/22 11:47:10;;;;;;;37.95;35.25;;;;;;;;;;5026204;28;20022;-57
2024/01/22 11:49:40;;;;;;;38.05;35.35;;;;;;;;;;5010663;28;20029;-57
2024/01/22 11:52:17;;;;;;;38.20;35.50;;;;;;;;;;5028614;28;20105;-56
2024/01/22 11:54:52;;;;;;;39.53;36.73;;;;;;;;;;5029623;28;20123;-58
2024/01/22 11:57:18;;;;;;;39.20;36.40;;;;;;;;;;5028941;28;20399;-55
2024/01/22 12:00:09;;;;;;;40.92;37.92;;;;;;;;;;5029079;28;20029;-52
2024/01/22 12:02:35;;;;;;;40.13;37.33;;;;;;;;;;5028037;28;20021;-52
2024/01/22 12:05:06;;;;;;;40.60;37.80;;;;;;;;;;5029221;28;20048;-55
2024/01/22 12:07:35;;;;;;;42.17;39.17;;;;;;;;;;5028669;28;20026;-56
2024/01/22 12:10:04;;;;;;;37.60;34.88;;;;;;;;;;5028811;28;20022;-54
2024/01/22 12:12:30;;;;;;;35.78;33.17;;;;;;;;;;5027889;28;20025;-57
2024/01/22 12:14:56;;;;;;;26.42;24.23;;;;;;;;;;5029738;28;20040;-53
2024/01/22 12:17:23;;;;;;;25.70;23.60;;;;;;;;;;5029083;28;20029;-55
2024/01/22 12:19:54;;;;;;;25.90;23.80;;;;;;;;;;5028798;28;20026;-53
2024/01/22 12:22:22;;;;;;;24.65;22.55;;;;;;;;;;5028239;28;20031;-55
2024/01/22 12:25:07;;;;;;;23.30;21.30;;;;;;;;;;5029082;28;20017;-54
2024/01/22 12:27:33;;;;;;;22.98;20.98;;;;;;;;;;5028250;28;20033;-53
2024/01/22 12:30:00;;;;;;;25.75;23.65;;;;;;;;;;5021839;28;20049;-51
2024/01/22 12:32:26;;;;;;;25.17;23.17;;;;;;;;;;5010419;28;20024;-55
2024/01/22 12:34:56;;;;;;;24.23;22.23;;;;;;;;;;5016208;28;20030;-54
2024/01/22 12:37:23;;;;;;;23.80;21.80;;;;;;;;;;5009939;28;20477;-54
2024/01/22 12:39:49;;;;;;;23.50;21.50;;;;;;;;;;5008904;28;20764;-52
2024/01/22 12:42:18;;;;;;;22.98;21.08;;;;;;;;;;5018917;28;20048;-54
2024/01/22 12:44:55;;;;;;;23.27;21.38;;;;;;;;;;5011642;28;20527;-54
2024/01/22 12:47:21;;;;;;;22.77;20.88;;;;;;;;;;5011716;28;20022;-55
2024/01/22 12:49:47;;;;;;;23.45;21.45;;;;;;;;;;5074986;23;20056;-55
2024/01/22 12:52:13;;;;;;;23.05;21.15;;;;;;;;;;5072692;28;20158;-57
2024/01/22 12:54:39;;;;;;;22.77;20.88;;;;;;;;;;5072515;28;20028;-58
2024/01/22 12:57:05;;;;;;;23.35;21.45;;;;;;;;;;5072840;28;20028;-56
2024/01/22 12:59:31;;;;;;;22.33;20.42;;;;;;;;;;5054765;28;20086;-58
2024/01/22 13:01:57;;;;;;;21.60;19.70;;;;;;;;;;5053876;28;20029;-57
2024/01/22 13:04:23;;;;;;;20.80;19.00;;;;;;;;;;5054979;28;20021;-58
2024/01/22 13:06:49;;;;;;;20.85;19.02;;;;;;;;;;5072706;28;20478;-60
2024/01/22 13:09:15;;;;;;;20.17;18.38;;;;;;;;;;5065195;28;20037;-52
2024/01/22 13:11:44;;;;;;;20.15;18.35;;;;;;;;;;5051743;28;20017;-56
2024/01/22 13:14:10;;;;;;;20.20;18.40;;;;;;;;;;5052635;28;20025;-58
2024/01/22 13:16:36;;;;;;;19.60;17.80;;;;;;;;;;5052472;28;20036;-55
2024/01/22 13:19:02;;;;;;;17.83;16.13;;;;;;;;;;5052626;28;20544;-59
2024/01/22 13:21:28;;;;;;;15.82;14.13;;;;;;;;;;5051578;28;20029;-61
2024/01/22 13:23:54;;;;;;;14.90;12.55;;;;;;;;;;5049095;28;20036;-56
2024/01/22 13:26:20;;;;;;;14.40;11.07;;;;;;;;;;5072760;28;20440;-54
2024/01/22 13:28:46;;;;;;;14.18;10.63;;;;;;;;;;5072705;28;20496;-57
2024/01/22 13:31:12;;;;;;;14.10;10.20;;;;;;;;;;5054012;28;20020;-58
2024/01/22 13:33:38;;;;;;;14.10;10.10;;;;;;;;;;5072921;28;20414;-55
2024/01/22 13:36:04;;;;;;;13.50;8.48;;;;;;;;;;5054571;28;20031;-58
2024/01/22 13:38:32;;;;;;;13.13;7.72;;;;;;;;;;5072504;28;20021;-56
2024/01/22 13:41:01;;;;;;;13.35;8.00;;;;;;;;;;5071814;28;20039;-56
2024/01/22 13:43:27;;;;;;;15.98;9.30;;;;;;;;;;5072318;28;20028;-52
2024/01/22 13:45:53;;;;;;;19.65;8.43;;;;;;;;;;5072424;28;20167;-54
2024/01/22 13:48:21;;;;;;;14.20;9.00;;;;;;;;;;5072027;28;20025;-51
2024/01/22 13:50:51;;;;;;;16.73;9.60;;;;;;;;;;5072341;28;20484;-55
2024/01/22 13:53:18;;;;;;;13.60;8.60;;;;;;;;;;5070975;28;20373;-55
2024/01/22 13:55:44;;;;;;;22.08;9.00;;;;;;;;;;5072669;28;20032;-57
2024/01/22 13:58:11;;;;;;;14.32;7.63;;;;;;;;;;5054479;28;20024;-53
2024/01/22 14:00:37;;;;;;;12.98;7.38;;;;;;;;;;5071672;28;20109;-52
2024/01/22 14:03:06;;;;;;;15.25;7.75;;;;;;;;;;5071580;28;20028;-54
2024/01/22 14:05:32;;;;;;;11.70;6.80;;;;;;;;;;5071749;28;20502;-54
2024/01/22 14:07:58;;;;;;;13.20;7.28;;;;;;;;;;5072166;28;20034;-54
2024/01/22 14:10:24;;;;;;;14.00;7.95;;;;;;;;;;5071923;28;20509;-56
2024/01/22 14:12:50;;;;;;;13.27;7.78;;;;;;;;;;5053237;28;20024;-56
2024/01/22 14:15:16;;;;;;;11.52;6.72;;;;;;;;;;5071636;28;20032;-55
2024/01/22 14:17:42;;;;;;;12.93;7.78;;;;;;;;;;5071863;28;20047;-58
2024/01/22 14:20:08;;;;;;;12.57;7.32;;;;;;;;;;5071975;28;20024;-49
2024/01/22 14:22:36;;;;;;;12.75;7.78;;;;;;;;;;5071444;28;20029;-57